Time;durP1;ratioP1;P1;durP2;ratioP2;P2;SDS_P1;SDS_P2;PMS_P1;PMS_P2;Temp;Humidity;BMP_temperature;BMP_pressure;BME280_temperature;BME280_humidity;BME280_pressure;Samples;Min_cycle;Max_cycle;Signal;HPM_P1;HPM_P2
2022/06/18 00:01:41;;;;;;;2.17;1.97;;;24.40;58.70;;;;;;5075984;28;20459;-71
2022/06/18 00:04:13;;;;;;;2.13;2.03;;;24.40;58.70;;;;;;5077725;28;20214;-71
2022/06/18 00:06:49;;;;;;;2.53;2.40;;;24.40;58.80;;;;;;5060401;28;20480;-71
2022/06/18 00:09:15;;;;;;;1.90;1.80;;;24.40;58.80;;;;;;5079779;28;21070;-70
2022/06/18 00:14:25;;;;;;;2.13;2.03;;;24.30;59.00;;;;;;5075288;28;20526;-71
2022/06/18 00:16:51;;;;;;;2.37;2.17;;;24.30;59.00;;;;;;5071228;28;20452;-70
2022/06/18 00:19:17;;;;;;;2.37;2.13;;;24.20;59.10;;;;;;5077295;28;20729;-71
2022/06/18 00:21:43;;;;;;;4.07;2.00;;;24.20;59.20;;;;;;5080432;28;20762;-70
2022/06/18 00:24:16;;;;;;;2.43;2.23;;;24.10;59.30;;;;;;5072216;28;20223;-71
2022/06/18 00:26:42;;;;;;;2.07;1.97;;;24.00;59.30;;;;;;5075756;28;20253;-71
2022/06/18 00:29:14;;;;;;;2.03;1.90;;;24.00;59.50;;;;;;5085940;28;20448;-70
2022/06/18 00:31:40;;;;;;;2.20;2.10;;;24.00;59.70;;;;;;5056870;28;20480;-71
2022/06/18 00:34:06;;;;;;;2.00;1.90;;;23.80;59.70;;;;;;5077470;28;20482;-71
2022/06/18 00:36:32;;;;;;;1.80;1.70;;;23.80;59.90;;;;;;5085747;28;20452;-71
2022/06/18 00:38:58;;;;;;;2.13;2.00;;;23.80;59.80;;;;;;5073440;28;20238;-70
2022/06/18 00:41:26;;;;;;;2.17;2.07;;;23.80;60.50;;;;;;5061785;28;20456;-71
2022/06/18 00:43:58;;;;;;;2.03;1.93;;;23.80;59.90;;;;;;5063539;28;20624;-71
2022/06/18 00:46:33;;;;;;;3.20;2.10;;;23.80;59.80;;;;;;5054242;28;20981;-70
2022/06/18 00:49:10;;;;;;;2.80;2.60;;;23.80;59.90;;;;;;5054984;28;20492;-71
2022/06/18 00:51:36;;;;;;;2.10;2.00;;;23.70;59.80;;;;;;5062147;28;20539;-70
2022/06/18 00:54:27;;;;;;;2.33;2.20;;;23.70;59.90;;;;;;5091761;28;20869;-71
2022/06/18 00:57:00;;;;;;;3.07;2.07;;;23.70;59.80;;;;;;5059189;28;20269;-71
2022/06/18 00:59:46;;;;;;;2.13;1.97;;;23.70;59.90;;;;;;5080837;28;20468;-71
2022/06/18 01:02:21;;;;;;;2.13;2.03;;;23.60;59.80;;;;;;5075017;28;20488;-68
2022/06/18 01:04:47;;;;;;;2.00;1.83;;;23.50;60.20;;;;;;5062508;28;20826;-66
2022/06/18 01:07:19;;;;;;;2.50;2.03;;;23.50;60.90;;;;;;5078667;28;20524;-67
2022/06/18 01:09:47;;;;;;;2.50;2.30;;;23.50;60.30;;;;;;5072500;28;20226;-67
2022/06/18 01:12:13;;;;;;;2.07;1.97;;;23.40;60.50;;;;;;5079994;28;20964;-68
2022/06/18 01:14:41;;;;;;;2.13;1.90;;;23.40;60.30;;;;;;5081463;28;20456;-68
2022/06/18 01:17:07;;;;;;;1.90;1.80;;;23.40;60.30;;;;;;5070542;28;20453;-67
2022/06/18 01:19:39;;;;;;;2.20;2.10;;;23.30;60.90;;;;;;5057848;28;21063;-68
2022/06/18 01:22:32;;;;;;;1.93;1.83;;;23.30;60.70;;;;;;5051454;28;20457;-68
2022/06/18 01:25:05;;;;;;;2.50;2.17;;;23.30;60.70;;;;;;5051407;28;20458;-68
2022/06/18 01:27:32;;;;;;;2.37;2.17;;;23.30;60.80;;;;;;5089413;28;20459;-69
2022/06/18 01:29:58;;;;;;;1.80;1.70;;;23.20;60.80;;;;;;5056473;28;20592;-68
2022/06/18 01:32:28;;;;;;;2.00;1.90;;;23.20;61.00;;;;;;5054646;28;20459;-68
2022/06/18 01:34:54;;;;;;;2.03;1.93;;;23.20;60.90;;;;;;5092209;28;20452;-68
2022/06/18 01:37:20;;;;;;;2.20;2.10;;;23.10;60.80;;;;;;5088103;28;20210;-67
2022/06/18 01:39:48;;;;;;;1.70;1.60;;;23.10;60.90;;;;;;5073790;28;20988;-67
2022/06/18 01:42:27;;;;;;;1.90;1.80;;;23.10;61.20;;;;;;5070726;28;20453;-69
2022/06/18 01:45:02;;;;;;;1.70;1.60;;;23.10;61.30;;;;;;5081116;28;20456;-68
2022/06/18 01:47:49;;;;;;;2.57;2.40;;;23.00;61.30;;;;;;5070952;28;20460;-66
2022/06/18 01:50:23;;;;;;;2.00;1.90;;;23.00;61.30;;;;;;5070327;28;20460;-67
2022/06/18 01:52:55;;;;;;;2.27;2.17;;;22.90;61.40;;;;;;5064886;28;20477;-68
2022/06/18 01:55:31;;;;;;;2.00;1.90;;;22.90;61.50;;;;;;5086321;28;20964;-68
2022/06/18 01:58:11;;;;;;;2.60;2.30;;;22.90;61.60;;;;;;5070560;28;20464;-68
2022/06/18 02:00:41;;;;;;;1.83;1.73;;;22.80;61.40;;;;;;5053594;28;20444;-68
2022/06/18 02:03:07;;;;;;;2.23;2.07;;;22.80;61.50;;;;;;5083677;28;20489;-68
2022/06/18 02:05:34;;;;;;;2.33;2.23;;;22.80;61.50;;;;;;5061276;28;20490;-66
2022/06/18 02:08:00;;;;;;;2.30;2.10;;;22.80;61.50;;;;;;5063650;28;20452;-68
2022/06/18 02:10:28;;;;;;;1.90;1.80;;;22.70;61.60;;;;;;5082124;28;20448;-67
2022/06/18 02:12:59;;;;;;;2.03;1.93;;;22.70;61.60;;;;;;5089944;28;20210;-68
2022/06/18 02:15:29;;;;;;;2.30;2.10;;;22.70;61.80;;;;;;5032917;28;20453;-69
2022/06/18 02:17:59;;;;;;;1.77;1.67;;;22.60;61.90;;;;;;5055500;28;20473;-68
2022/06/18 02:20:28;;;;;;;2.13;1.93;;;22.60;62.00;;;;;;5096250;28;20794;-69
2022/06/18 02:22:56;;;;;;;1.90;1.73;;;22.60;61.80;;;;;;5052203;28;20450;-69
2022/06/18 02:25:26;;;;;;;2.47;2.27;;;22.60;62.10;;;;;;5068414;28;20818;-69
2022/06/18 02:28:03;;;;;;;1.90;1.80;;;22.50;62.20;;;;;;5075858;28;20495;-68
2022/06/18 02:30:35;;;;;;;2.00;1.90;;;22.50;62.20;;;;;;5089632;28;20963;-68
2022/06/18 02:33:23;;;;;;;4.03;1.83;;;22.50;62.50;;;;;;5090084;28;20448;-68
2022/06/18 02:35:49;;;;;;;2.33;2.13;;;22.40;62.30;;;;;;5077184;28;20559;-68
2022/06/18 02:38:22;;;;;;;2.40;2.20;;;22.40;62.60;;;;;;5052355;28;20461;-67
2022/06/18 02:40:48;;;;;;;2.03;1.93;;;22.30;62.60;;;;;;5074222;28;20451;-69
2022/06/18 02:43:15;;;;;;;1.60;1.50;;;22.30;62.80;;;;;;5065240;28;20440;-68
2022/06/18 02:45:44;;;;;;;1.90;1.80;;;22.30;62.90;;;;;;5072298;28;20443;-68
2022/06/18 02:48:10;;;;;;;1.93;1.83;;;22.20;63.30;;;;;;5072925;28;20449;-68
2022/06/18 02:50:39;;;;;;;1.70;1.60;;;22.20;63.10;;;;;;5064725;28;20448;-68
2022/06/18 02:53:09;;;;;;;2.10;2.00;;;22.20;63.30;;;;;;5084141;28;20449;-68
2022/06/18 02:55:37;;;;;;;3.50;2.27;;;22.20;63.30;;;;;;5078012;28;20452;-67
2022/06/18 02:58:25;;;;;;;2.00;1.90;;;22.10;63.30;;;;;;5051610;28;20465;-68
2022/06/18 03:00:58;;;;;;;2.90;2.00;;;22.10;63.30;;;;;;5064599;28;20542;-68
2022/06/18 03:03:28;;;;;;;2.30;2.10;;;22.10;63.30;;;;;;5083074;28;20441;-68
2022/06/18 03:05:54;;;;;;;2.17;2.07;;;22.10;63.40;;;;;;5071459;28;20975;-68
2022/06/18 03:08:24;;;;;;;2.30;2.20;;;22.00;63.30;;;;;;5062911;28;20449;-68
2022/06/18 03:13:38;;;;;;;1.97;1.87;;;22.00;63.60;;;;;;5068456;28;20802;-68
2022/06/18 03:16:06;;;;;;;3.43;2.30;;;22.00;64.40;;;;;;5069343;28;20541;-67
2022/06/18 03:18:35;;;;;;;2.30;2.20;;;22.00;63.80;;;;;;5051650;28;20453;-69
2022/06/18 03:21:24;;;;;;;1.80;1.70;;;21.90;63.60;;;;;;5070369;28;20842;-68
2022/06/18 03:23:50;;;;;;;2.60;2.40;;;21.80;64.10;;;;;;5062262;28;20461;-68
2022/06/18 03:26:17;;;;;;;1.70;1.60;;;21.70;64.80;;;;;;5052937;28;20461;-68
2022/06/18 03:28:50;;;;;;;1.87;1.77;;;21.70;64.70;;;;;;5075010;28;20682;-68
2022/06/18 03:31:16;;;;;;;2.60;1.93;;;21.80;65.00;;;;;;5068439;28;20546;-68
2022/06/18 03:33:42;;;;;;;2.53;2.20;;;21.70;64.80;;;;;;5068771;28;20816;-67
2022/06/18 03:36:12;;;;;;;2.20;2.10;;;21.80;64.90;;;;;;5075082;28;20465;-68
2022/06/18 03:38:38;;;;;;;2.03;1.93;;;21.80;64.80;;;;;;5083453;28;20456;-69
2022/06/18 03:41:08;;;;;;;3.70;2.40;;;21.80;64.90;;;;;;5087543;28;20461;-69
2022/06/18 03:43:34;;;;;;;2.40;2.20;;;21.70;64.70;;;;;;5076156;28;20468;-67
2022/06/18 03:46:07;;;;;;;2.53;2.33;;;21.70;65.00;;;;;;5069103;28;20461;-68
2022/06/18 03:48:48;;;;;;;2.17;2.07;;;21.70;65.20;;;;;;5051600;28;20468;-68
2022/06/18 03:51:16;;;;;;;2.27;2.07;;;21.70;65.30;;;;;;5078580;28;20446;-67
2022/06/18 03:53:43;;;;;;;4.63;2.60;;;21.70;65.60;;;;;;5071687;28;20449;-69
2022/06/18 03:56:14;;;;;;;2.20;2.10;;;21.70;65.40;;;;;;5059884;28;20969;-68
2022/06/18 03:58:43;;;;;;;2.50;2.30;;;21.70;65.30;;;;;;5054107;28;20468;-68
2022/06/18 04:01:12;;;;;;;3.20;3.00;;;21.70;65.70;;;;;;5079764;28;20506;-69
2022/06/18 04:03:38;;;;;;;5.63;2.33;;;21.60;65.60;;;;;;5087891;28;21002;-68
2022/06/18 04:06:09;;;;;;;2.80;2.30;;;21.60;66.00;;;;;;5048654;28;21000;-68
2022/06/18 04:08:35;;;;;;;2.13;2.03;;;21.60;66.10;;;;;;5051470;28;20473;-67
2022/06/18 04:11:02;;;;;;;2.43;2.23;;;21.60;65.80;;;;;;5065736;28;20478;-69
2022/06/18 04:13:29;;;;;;;2.40;2.20;;;21.60;65.90;;;;;;5083435;28;20519;-67
2022/06/18 04:16:07;;;;;;;2.20;2.10;;;21.60;66.00;;;;;;5070003;28;20456;-68
2022/06/18 04:18:35;;;;;;;1.90;1.80;;;21.50;65.70;;;;;;5070272;28;20483;-68
2022/06/18 04:21:03;;;;;;;3.90;2.60;;;21.60;66.20;;;;;;5088468;28;20858;-68
2022/06/18 04:23:32;;;;;;;3.27;2.00;;;21.50;66.30;;;;;;5080780;28;20449;-68
2022/06/18 04:25:58;;;;;;;2.63;2.43;;;21.50;66.20;;;;;;5068133;28;20468;-68
2022/06/18 04:28:25;;;;;;;3.03;2.23;;;21.50;66.50;;;;;;5067040;28;20219;-68
2022/06/18 04:30:56;;;;;;;3.80;2.17;;;21.50;66.60;;;;;;5068282;28;20453;-68
2022/06/18 04:33:31;;;;;;;2.63;2.43;;;21.50;67.10;;;;;;5059968;28;20540;-68
2022/06/18 04:36:33;;;;;;;2.37;2.27;;;21.50;67.10;;;;;;5068353;28;20587;-69
2022/06/18 04:39:02;;;;;;;2.33;2.13;;;21.50;67.40;;;;;;5075507;28;20495;-68
2022/06/18 04:41:54;;;;;;;6.50;2.03;;;21.50;67.30;;;;;;5074258;28;20552;-68
2022/06/18 04:44:23;;;;;;;3.60;2.63;;;21.50;67.20;;;;;;5072513;28;20460;-68
2022/06/18 04:46:57;;;;;;;2.60;2.43;;;21.50;67.10;;;;;;5056446;28;20817;-68
2022/06/18 04:49:24;;;;;;;2.17;2.03;;;21.60;67.10;;;;;;5060432;28;20474;-68
2022/06/18 04:51:50;;;;;;;2.00;1.90;;;21.60;67.70;;;;;;5056470;28;20536;-67
2022/06/18 04:54:26;;;;;;;2.50;2.20;;;21.60;68.00;;;;;;5056380;28;20449;-68
2022/06/18 04:56:51;;;;;;;2.97;2.77;;;21.60;67.90;;;;;;5063568;28;20509;-68
2022/06/18 04:59:17;;;;;;;1.93;1.83;;;21.60;67.70;;;;;;5090310;28;20237;-68
2022/06/18 05:01:46;;;;;;;2.60;2.00;;;21.60;67.90;;;;;;5085939;28;20620;-66
2022/06/18 05:04:28;;;;;;;5.53;2.43;;;21.60;67.70;;;;;;5071436;28;20455;-68
2022/06/18 05:07:27;;;;;;;2.70;2.30;;;21.60;68.00;;;;;;5059616;28;20490;-68
2022/06/18 05:10:19;;;;;;;2.20;2.00;;;21.60;68.10;;;;;;5073905;28;20493;-68
2022/06/18 05:12:53;;;;;;;2.40;2.23;;;21.60;68.30;;;;;;5073223;28;20443;-68
2022/06/18 05:15:40;;;;;;;2.53;2.43;;;21.60;68.30;;;;;;5052291;28;20477;-68
2022/06/18 05:18:06;;;;;;;2.70;2.50;;;21.60;68.80;;;;;;5067075;28;20457;-68
2022/06/18 05:20:32;;;;;;;3.47;2.40;;;21.60;68.20;;;;;;5075798;28;20460;-68
2022/06/18 05:22:59;;;;;;;2.53;2.27;;;21.70;68.80;;;;;;5072651;28;20815;-68
2022/06/18 05:25:24;;;;;;;2.80;2.60;;;21.70;68.60;;;;;;5070016;28;20536;-68
2022/06/18 05:27:50;;;;;;;3.27;2.50;;;21.70;68.90;;;;;;5076123;28;20229;-68
2022/06/18 05:30:28;;;;;;;2.70;2.50;;;21.70;68.70;;;;;;5068891;28;20746;-66
2022/06/18 05:32:58;;;;;;;2.50;2.30;;;21.70;68.80;;;;;;5055285;28;20539;-68
2022/06/18 05:35:25;;;;;;;2.90;2.60;;;21.80;69.00;;;;;;5070691;28;20464;-68
2022/06/18 05:37:51;;;;;;;3.13;2.87;;;21.80;68.80;;;;;;5077896;28;20461;-69
2022/06/18 05:40:18;;;;;;;2.50;2.30;;;21.80;69.10;;;;;;5071063;28;20228;-68
2022/06/18 05:42:44;;;;;;;2.90;2.70;;;21.80;68.80;;;;;;5076484;28;20681;-68
2022/06/18 05:45:10;;;;;;;3.10;2.70;;;21.90;69.00;;;;;;5058922;28;20462;-67
2022/06/18 05:47:36;;;;;;;3.00;2.80;;;21.90;69.10;;;;;;5069679;28;20288;-69
2022/06/18 05:50:06;;;;;;;3.43;2.87;;;21.90;70.00;;;;;;5070233;28;20488;-69
2022/06/18 05:52:34;;;;;;;3.07;2.87;;;21.90;69.20;;;;;;5079176;28;20453;-68
2022/06/18 05:55:11;;;;;;;2.57;2.37;;;21.90;70.00;;;;;;5069938;28;20445;-68
2022/06/18 05:57:53;;;;;;;2.93;2.70;;;22.00;69.20;;;;;;5067720;28;20447;-68
2022/06/18 06:00:33;;;;;;;3.60;2.20;;;22.00;69.80;;;;;;5075159;28;20513;-68
2022/06/18 06:03:02;;;;;;;3.03;2.83;;;22.00;69.10;;;;;;5090604;28;20456;-67
2022/06/18 06:05:28;;;;;;;2.30;2.20;;;22.10;69.60;;;;;;5068023;28;20826;-69
2022/06/18 06:07:54;;;;;;;3.50;2.47;;;22.10;69.20;;;;;;5086480;28;20456;-68
2022/06/18 06:13:12;;;;;;;2.70;2.50;;;22.20;69.60;;;;;;5095006;28;20449;-68
2022/06/18 06:15:39;;;;;;;2.87;2.57;;;22.20;69.40;;;;;;5089671;28;20445;-68
2022/06/18 06:18:06;;;;;;;5.00;3.37;;;22.30;69.80;;;;;;5090354;28;20467;-67
2022/06/18 06:20:36;;;;;;;4.57;2.70;;;22.30;69.60;;;;;;5060569;28;20465;-68
2022/06/18 06:23:01;;;;;;;2.50;2.40;;;22.40;70.10;;;;;;5069869;28;20449;-69
2022/06/18 06:25:27;;;;;;;2.80;2.60;;;22.40;70.20;;;;;;5070839;28;20822;-68
2022/06/18 06:27:53;;;;;;;3.33;3.10;;;22.50;70.20;;;;;;5050904;28;20596;-71
2022/06/18 06:30:18;;;;;;;2.57;2.40;;;22.60;70.80;;;;;;5066205;28;20322;-71
2022/06/18 06:32:45;;;;;;;2.87;2.67;;;22.60;71.00;;;;;;5074945;28;20701;-71
2022/06/18 06:35:12;;;;;;;2.30;2.10;;;22.70;70.60;;;;;;5071390;28;20222;-71
2022/06/18 06:37:37;;;;;;;3.00;2.80;;;22.80;71.30;;;;;;5066787;28;20468;-71
2022/06/18 06:40:04;;;;;;;2.97;2.77;;;22.80;71.20;;;;;;5058131;28;20474;-71
2022/06/18 06:42:29;;;;;;;2.97;2.77;;;22.90;71.10;;;;;;5076199;28;20275;-71
2022/06/18 06:44:55;;;;;;;2.90;2.70;;;23.00;71.20;;;;;;5065406;28;20544;-71
2022/06/18 06:47:22;;;;;;;3.83;3.53;;;23.10;71.60;;;;;;5069621;28;20303;-71
2022/06/18 06:49:47;;;;;;;3.17;2.97;;;23.10;72.00;;;;;;5077009;28;20217;-69
2022/06/18 06:52:13;;;;;;;3.90;3.60;;;23.20;71.70;;;;;;5062152;28;20471;-68
2022/06/18 06:54:39;;;;;;;2.90;2.60;;;23.30;72.50;;;;;;5081939;28;20210;-68
2022/06/18 06:57:23;;;;;;;2.70;2.50;;;23.40;73.30;;;;;;5071883;28;20244;-68
2022/06/18 06:59:49;;;;;;;3.17;2.87;;;23.50;74.20;;;;;;5067157;28;20526;-69
2022/06/18 07:02:19;;;;;;;2.70;2.50;;;23.60;74.00;;;;;;5052268;28;20453;-68
2022/06/18 07:04:45;;;;;;;3.23;2.93;;;23.70;73.80;;;;;;5069564;28;20481;-68
2022/06/18 07:07:15;;;;;;;2.90;2.70;;;23.80;73.90;;;;;;5084694;28;20503;-69
2022/06/18 07:09:41;;;;;;;3.17;2.83;;;23.90;74.10;;;;;;5057165;28;20279;-67
2022/06/18 07:12:08;;;;;;;3.67;3.37;;;23.90;74.40;;;;;;5067002;28;20456;-67
2022/06/18 07:14:36;;;;;;;2.73;2.53;;;24.10;75.50;;;;;;5081744;28;22737;-69
2022/06/18 07:17:02;;;;;;;3.10;2.80;;;24.20;75.20;;;;;;5074544;28;20456;-70
2022/06/18 07:19:28;;;;;;;3.10;2.60;;;24.30;75.00;;;;;;5066577;28;20471;-70
2022/06/18 07:21:54;;;;;;;3.90;2.50;;;24.40;75.20;;;;;;5074175;28;20436;-70
2022/06/18 07:24:20;;;;;;;3.07;2.87;;;24.40;74.60;;;;;;5083113;28;20206;-70
2022/06/18 07:26:47;;;;;;;3.57;3.07;;;24.50;75.10;;;;;;5063524;28;20221;-70
2022/06/18 07:29:13;;;;;;;3.17;2.93;;;24.60;75.20;;;;;;5069430;28;20448;-71
2022/06/18 07:31:40;;;;;;;2.80;2.50;;;24.70;74.30;;;;;;5091587;28;20221;-71
2022/06/18 07:34:07;;;;;;;2.80;2.60;;;24.80;73.20;;;;;;5086931;28;20490;-71
2022/06/18 07:36:33;;;;;;;2.83;2.63;;;24.90;71.70;;;;;;5058811;28;20548;-70
2022/06/18 07:39:04;;;;;;;3.30;2.47;;;24.90;72.00;;;;;;5077423;28;20479;-71
2022/06/18 07:41:39;;;;;;;7.63;2.50;;;25.00;71.40;;;;;;5080886;28;20444;-71
2022/06/18 07:44:05;;;;;;;2.93;2.73;;;25.10;71.70;;;;;;5069962;28;21025;-71
2022/06/18 07:46:31;;;;;;;2.50;2.40;;;25.30;70.20;;;;;;5070555;28;20461;-71
2022/06/18 07:48:56;;;;;;;3.47;2.70;;;25.40;69.80;;;;;;5067825;28;20222;-71
2022/06/18 07:51:25;;;;;;;6.13;2.67;;;25.50;70.50;;;;;;5075598;28;20214;-71
2022/06/18 07:53:51;;;;;;;3.60;2.80;;;25.50;70.80;;;;;;5083085;28;20713;-70
2022/06/18 07:56:17;;;;;;;2.83;2.53;;;25.70;70.30;;;;;;5087603;28;20542;-71
2022/06/18 07:58:42;;;;;;;5.53;2.80;;;25.70;70.10;;;;;;5083049;28;20233;-70
2022/06/18 08:01:08;;;;;;;3.20;2.40;;;25.80;70.00;;;;;;5073816;28;20279;-71
2022/06/18 08:03:35;;;;;;;2.43;2.33;;;26.00;69.70;;;;;;5064121;28;20227;-70
2022/06/18 08:06:02;;;;;;;3.17;2.90;;;26.10;69.40;;;;;;5061525;28;20361;-71
2022/06/18 08:08:28;;;;;;;3.03;2.83;;;26.20;69.30;;;;;;5063095;28;20976;-71
2022/06/18 08:10:54;;;;;;;5.00;2.70;;;26.40;69.00;;;;;;5067983;28;20441;-71
2022/06/18 08:13:21;;;;;;;3.10;2.90;;;26.50;68.60;;;;;;5067092;28;20217;-70
2022/06/18 08:15:47;;;;;;;4.60;2.87;;;26.50;68.40;;;;;;5065807;28;20577;-71
2022/06/18 08:18:13;;;;;;;2.70;2.50;;;26.70;67.10;;;;;;5087976;28;20497;-71
2022/06/18 08:20:41;;;;;;;2.50;2.33;;;26.80;66.40;;;;;;5083261;28;20236;-71
2022/06/18 08:23:08;;;;;;;3.33;2.83;;;26.90;67.40;;;;;;5085573;28;20255;-71
2022/06/18 08:25:37;;;;;;;2.42;2.13;;;26.90;67.10;;;;;;5082832;28;20298;-72
2022/06/18 08:28:04;;;;;;;2.60;2.40;;;27.10;67.30;;;;;;5073194;28;20222;-71
2022/06/18 08:30:31;;;;;;;3.15;2.95;;;27.20;66.30;;;;;;5076213;28;20233;-71
2022/06/18 08:32:57;;;;;;;2.67;2.47;;;27.30;64.80;;;;;;5086618;28;20230;-71
2022/06/18 08:35:22;;;;;;;4.00;3.25;;;27.40;66.70;;;;;;5081478;28;20260;-71
2022/06/18 08:37:49;;;;;;;2.38;2.22;;;27.50;65.40;;;;;;5059769;28;20230;-71
2022/06/18 08:41:04;;;;;;;2.80;2.60;;;27.60;64.40;;;;;;5070326;28;20227;-72
2022/06/18 08:43:58;;;;;;;2.90;2.72;;;27.70;64.40;;;;;;5042203;28;20216;-73
2022/06/18 08:46:41;;;;;;;2.53;2.42;;;27.80;65.00;;;;;;5027713;28;20717;-70
2022/06/18 08:49:16;;;;;;;2.97;2.47;;;28.00;65.00;;;;;;5083506;28;20238;-70
2022/06/18 08:51:51;;;;;;;3.10;2.60;;;28.10;64.10;;;;;;5077446;28;20222;-71
2022/06/18 08:54:30;;;;;;;4.72;2.25;;;28.20;64.40;;;;;;5090006;28;20215;-71
2022/06/18 08:57:22;;;;;;;2.97;2.78;;;28.30;64.20;;;;;;5068759;28;20480;-71
2022/06/18 09:00:12;;;;;;;2.55;2.45;;;28.40;63.80;;;;;;5059068;28;20228;-70
2022/06/18 09:02:53;;;;;;;2.85;2.55;;;28.50;64.00;;;;;;5070619;28;20246;-71
2022/06/18 09:05:27;;;;;;;4.55;2.70;;;28.50;63.80;;;;;;5079133;28;20281;-71
2022/06/18 09:08:08;;;;;;;2.80;2.60;;;28.70;63.90;;;;;;5072697;28;20565;-71
2022/06/18 09:10:50;;;;;;;3.05;2.85;;;29.00;62.50;;;;;;5074029;28;20224;-71
2022/06/18 09:13:26;;;;;;;3.35;3.15;;;29.20;62.70;;;;;;5066161;28;20225;-71
2022/06/18 09:16:00;;;;;;;2.58;2.47;;;29.30;62.50;;;;;;5070111;28;20222;-71
2022/06/18 09:18:34;;;;;;;3.42;3.13;;;29.50;62.70;;;;;;5063719;28;20228;-71
2022/06/18 09:21:04;;;;;;;3.47;3.28;;;29.60;61.10;;;;;;5072582;28;20628;-71
2022/06/18 09:23:46;;;;;;;2.78;2.58;;;29.80;61.60;;;;;;5083151;28;20698;-71
2022/06/18 09:26:20;;;;;;;3.08;2.83;;;29.80;61.80;;;;;;5067282;28;20246;-71
2022/06/18 09:28:55;;;;;;;2.88;2.78;;;29.90;62.40;;;;;;5069498;28;20228;-69
2022/06/18 09:31:35;;;;;;;4.20;3.05;;;30.00;62.40;;;;;;5077858;28;20218;-71
2022/06/18 09:34:19;;;;;;;3.38;3.08;;;30.10;62.40;;;;;;5073914;28;20214;-71
2022/06/18 09:36:49;;;;;;;2.72;2.53;;;30.20;62.70;;;;;;5063530;28;20247;-70
2022/06/18 09:39:23;;;;;;;2.97;2.78;;;30.30;62.40;;;;;;5081788;28;20296;-71
2022/06/18 09:41:53;;;;;;;3.05;2.85;;;30.30;62.20;;;;;;5076431;28;20244;-71
2022/06/18 09:44:44;;;;;;;2.80;2.60;;;30.50;62.00;;;;;;5068776;28;20240;-70
2022/06/18 09:47:32;;;;;;;3.45;3.15;;;30.60;62.20;;;;;;5072799;28;20228;-71
2022/06/18 09:49:59;;;;;;;3.38;3.17;;;30.80;59.80;;;;;;5059154;28;20220;-71
2022/06/18 09:52:36;;;;;;;3.08;2.88;;;31.10;59.40;;;;;;5067348;28;20215;-68
2022/06/18 09:55:23;;;;;;;3.10;2.90;;;31.20;59.60;;;;;;5079090;28;20776;-69
2022/06/18 09:57:54;;;;;;;5.90;2.80;;;31.20;59.40;;;;;;5050810;28;20238;-69
2022/06/18 10:00:24;;;;;;;3.25;3.05;;;31.30;59.10;;;;;;5054072;28;20776;-69
2022/06/18 10:02:56;;;;;;;3.53;3.28;;;31.40;59.30;;;;;;5081967;28;20621;-68
2022/06/18 10:08:15;;;;;;;3.47;3.25;;;31.70;59.10;;;;;;5066841;28;20312;-70
2022/06/18 10:10:48;;;;;;;3.35;3.15;;;31.90;59.20;;;;;;5079325;28;20699;-68
2022/06/18 10:13:18;;;;;;;5.93;3.10;;;32.00;59.10;;;;;;5071986;28;20706;-67
2022/06/18 10:15:44;;;;;;;3.13;2.92;;;32.20;59.10;;;;;;5069051;28;20317;-68
2022/06/18 10:18:33;;;;;;;4.65;3.20;;;32.40;59.00;;;;;;5068489;28;20759;-68
2022/06/18 10:21:10;;;;;;;3.83;3.53;;;32.60;58.60;;;;;;5073250;28;20228;-69
2022/06/18 10:23:51;;;;;;;3.50;3.30;;;32.80;58.70;;;;;;5067347;28;20223;-68
2022/06/18 10:26:39;;;;;;;3.78;3.58;;;33.10;58.30;;;;;;5074501;28;20223;-70
2022/06/18 10:29:08;;;;;;;4.18;3.88;;;33.20;58.10;;;;;;5075711;28;20237;-69
2022/06/18 10:31:54;;;;;;;5.90;3.78;;;33.30;58.20;;;;;;5082857;28;20232;-69
2022/06/18 10:34:54;;;;;;;3.55;3.35;;;33.40;57.80;;;;;;5063233;28;20700;-69
2022/06/18 10:37:57;;;;;;;3.97;3.55;;;33.40;58.10;;;;;;5077828;28;20601;-69
2022/06/18 10:40:28;;;;;;;3.80;3.22;;;33.40;58.20;;;;;;5068767;28;20258;-69
2022/06/18 10:43:00;;;;;;;4.07;3.60;;;33.50;58.30;;;;;;5069918;28;20234;-68
2022/06/18 10:45:48;;;;;;;4.07;3.55;;;33.50;58.10;;;;;;5061138;28;20765;-66
2022/06/18 10:48:22;;;;;;;3.72;3.33;;;33.60;58.30;;;;;;5067788;28;20770;-69
2022/06/18 10:50:54;;;;;;;3.95;3.65;;;33.70;57.90;;;;;;5077444;28;20694;-69
2022/06/18 10:53:23;;;;;;;3.22;3.03;;;33.80;58.00;;;;;;5075263;28;20228;-69
2022/06/18 10:56:17;;;;;;;3.92;3.45;;;33.90;58.00;;;;;;5068959;28;20232;-68
2022/06/18 10:58:48;;;;;;;3.60;3.40;;;34.10;57.80;;;;;;5072818;28;20296;-68
2022/06/18 11:01:16;;;;;;;3.85;3.55;;;34.20;57.80;;;;;;5070208;28;20227;-67
2022/06/18 11:03:53;;;;;;;4.05;3.67;;;34.20;57.00;;;;;;5068583;28;20234;-68
2022/06/18 11:06:19;;;;;;;3.60;3.40;;;34.30;57.30;;;;;;5069031;28;20232;-68
2022/06/18 11:08:55;;;;;;;4.10;3.65;;;34.40;57.20;;;;;;5074323;28;20608;-68
2022/06/18 11:11:25;;;;;;;5.88;4.22;;;34.40;57.20;;;;;;5065146;28;20232;-68
2022/06/18 11:13:51;;;;;;;5.22;4.13;;;34.50;57.30;;;;;;5067506;28;20281;-69
2022/06/18 11:16:26;;;;;;;4.15;3.85;;;34.50;57.20;;;;;;5076325;28;20664;-69
2022/06/18 11:19:00;;;;;;;3.80;3.60;;;34.60;57.30;;;;;;5075765;28;20219;-69
2022/06/18 11:21:33;;;;;;;3.60;3.30;;;34.60;57.10;;;;;;5068505;28;20312;-68
2022/06/18 11:24:05;;;;;;;4.05;3.50;;;34.80;56.50;;;;;;5076167;28;20306;-69
2022/06/18 11:26:31;;;;;;;7.47;6.88;;;35.00;56.20;;;;;;5075347;28;20232;-69
2022/06/18 11:29:07;;;;;;;6.88;4.15;;;35.10;55.80;;;;;;5079239;28;20264;-69
2022/06/18 11:31:43;;;;;;;4.80;3.80;;;35.30;54.80;;;;;;5069426;28;20241;-69
2022/06/18 11:34:44;;;;;;;6.53;4.15;;;35.30;54.90;;;;;;5075762;28;20727;-69
2022/06/18 11:37:25;;;;;;;4.28;3.75;;;35.30;55.40;;;;;;5078447;28;20233;-69
2022/06/18 11:40:02;;;;;;;3.90;3.50;;;35.40;54.00;;;;;;5061612;28;20647;-69
2022/06/18 11:42:37;;;;;;;4.07;3.65;;;35.50;54.40;;;;;;5075240;28;20247;-68
2022/06/18 11:45:36;;;;;;;5.35;3.90;;;35.60;54.60;;;;;;5068610;28;20723;-68
2022/06/18 11:48:26;;;;;;;4.45;4.07;;;35.60;53.80;;;;;;5054996;28;20593;-69
2022/06/18 11:50:58;;;;;;;3.95;3.50;;;35.80;53.60;;;;;;5046709;28;20351;-69
2022/06/18 11:53:33;;;;;;;5.78;4.13;;;35.90;53.90;;;;;;5087188;28;20226;-67
2022/06/18 11:56:02;;;;;;;4.00;3.60;;;35.90;54.00;;;;;;5050347;28;20228;-69
2022/06/18 11:58:30;;;;;;;6.43;3.92;;;35.90;54.10;;;;;;5079044;28;20267;-69
2022/06/18 12:01:03;;;;;;;5.65;4.05;;;36.10;53.30;;;;;;5069340;28;20284;-69
2022/06/18 12:03:53;;;;;;;4.20;3.90;;;36.30;53.20;;;;;;5079646;28;20229;-68
2022/06/18 12:06:37;;;;;;;7.10;4.07;;;36.40;52.70;;;;;;5070801;28;20210;-69
2022/06/18 12:09:03;;;;;;;8.15;4.43;;;36.50;53.20;;;;;;5084817;28;20218;-68
2022/06/18 12:11:58;;;;;;;7.50;4.25;;;36.60;52.90;;;;;;5072093;28;20272;-68
2022/06/18 12:14:45;;;;;;;5.97;4.00;;;36.60;53.00;;;;;;5070776;28;20701;-69
2022/06/18 12:17:26;;;;;;;4.82;3.65;;;36.60;53.20;;;;;;5055110;28;20246;-68
2022/06/18 12:20:12;;;;;;;4.18;3.72;;;36.50;53.10;;;;;;5072573;28;20225;-69
2022/06/18 12:23:13;;;;;;;6.47;3.97;;;36.60;53.30;;;;;;5072093;28;20242;-69
2022/06/18 12:25:51;;;;;;;4.43;3.95;;;36.70;53.40;;;;;;5064430;28;20298;-67
2022/06/18 12:28:35;;;;;;;4.78;3.88;;;37.00;52.50;;;;;;5075373;28;20226;-69
2022/06/18 12:31:10;;;;;;;6.00;5.60;;;37.10;51.80;;;;;;5071360;28;20217;-69
2022/06/18 12:34:12;;;;;;;8.80;4.50;;;37.20;51.50;;;;;;5071643;28;20317;-69
2022/06/18 12:36:38;;;;;;;5.97;4.22;;;37.10;52.20;;;;;;5056993;28;20219;-69
2022/06/18 12:39:27;;;;;;;5.22;4.03;;;37.10;51.90;;;;;;5071343;28;20586;-70
2022/06/18 12:42:11;;;;;;;6.03;4.72;;;37.20;51.90;;;;;;5054919;28;20211;-69
2022/06/18 12:44:54;;;;;;;9.27;4.88;;;37.30;51.70;;;;;;5067277;28;20207;-67
2022/06/18 12:47:39;;;;;;;4.65;4.25;;;37.40;51.80;;;;;;5059401;28;20240;-69
2022/06/18 12:50:10;;;;;;;5.60;4.20;;;37.40;51.60;;;;;;5069958;28;20212;-69
2022/06/18 12:53:08;;;;;;;6.90;4.30;;;37.50;51.20;;;;;;5051291;28;20298;-69
2022/06/18 12:55:39;;;;;;;4.57;4.10;;;37.50;51.50;;;;;;5023251;28;20657;-70
2022/06/18 12:58:27;;;;;;;5.57;3.95;;;37.50;51.70;;;;;;5066736;28;20264;-69
2022/06/18 13:01:02;;;;;;;4.22;3.83;;;37.60;51.50;;;;;;5072892;28;20222;-68
2022/06/18 13:03:47;;;;;;;7.25;4.93;;;37.70;51.40;;;;;;5054683;28;20230;-71
2022/06/18 13:06:36;;;;;;;4.22;3.92;;;37.80;51.20;;;;;;5070977;28;20608;-69
2022/06/18 13:09:20;;;;;;;6.70;4.40;;;37.90;51.30;;;;;;5055395;28;20272;-69
2022/06/18 13:11:45;;;;;;;6.00;4.22;;;38.00;51.00;;;;;;5067032;28;20221;-68
2022/06/18 13:14:29;;;;;;;7.95;4.30;;;38.00;51.40;;;;;;5072358;28;20216;-69
2022/06/18 13:17:07;;;;;;;4.65;4.35;;;38.00;51.30;;;;;;5073775;28;20583;-69
2022/06/18 13:19:44;;;;;;;4.43;3.88;;;38.00;51.00;;;;;;5066433;28;20218;-68
2022/06/18 13:22:11;;;;;;;5.38;4.00;;;38.10;50.50;;;;;;5080907;28;20229;-69
2022/06/18 13:30:26;;;;;;;4.75;4.00;;;38.10;50.70;;;;;;5064900;28;20220;-69
2022/06/18 13:33:32;;;;;;;5.97;4.35;;;38.30;50.80;;;;;;5067128;28;20218;-69
2022/06/18 13:36:17;;;;;;;4.68;4.18;;;38.30;51.10;;;;;;5061626;28;20674;-69